GTI518 KDEN-CYYC
Flight info
| Callsign | GTI518 |
|---|---|
| Flight time | N/A |
| Altitude | 380000 |
| Route | XXWNG1 XXWNG BIL TOVUM EBGAL7 |
| Aircraft | B77F/H-V/N |
Departure
| Time | 2026-05-06 22:44 |
|---|---|
| Airport | Denver International Airport (KDEN) |
Arrival
| Time | N/A |
|---|---|
| Airport | Calgary International Airport (CYYC) |
| Time | Latitude | Longitude | Altitude | Speed | Heading |
|---|---|---|---|---|---|
| 2026-05-06 22:20 | 39.82939 | -104.67874 | 5391 ft | 0 kts | 180° |
| 2026-05-06 22:34 | 39.82941 | -104.67874 | 5385 ft | 1 kts | 180° |
| 2026-05-06 22:35 | 39.82956 | -104.67874 | 5391 ft | 2 kts | 180° |
| 2026-05-06 22:35 | 39.82972 | -104.67874 | 5391 ft | 2 kts | 180° |
| 2026-05-06 22:35 | 39.82989 | -104.67874 | 5388 ft | 2 kts | 174° |
| 2026-05-06 22:35 | 39.83005 | -104.67879 | 5386 ft | 2 kts | 146° |
| 2026-05-06 22:36 | 39.83016 | -104.67895 | 5388 ft | 2 kts | 87° |
| 2026-05-06 22:36 | 39.83015 | -104.67904 | 5386 ft | 0 kts | 92° |
| 2026-05-06 22:39 | 39.83015 | -104.67895 | 5391 ft | 3 kts | 92° |
| 2026-05-06 22:39 | 39.83013 | -104.67814 | 5384 ft | 11 kts | 92° |
| 2026-05-06 22:39 | 39.83012 | -104.67700 | 5385 ft | 18 kts | 89° |
| 2026-05-06 22:40 | 39.83010 | -104.67508 | 5387 ft | 21 kts | 91° |
| 2026-05-06 22:40 | 39.83006 | -104.67322 | 5391 ft | 21 kts | 98° |
| 2026-05-06 22:40 | 39.82952 | -104.67151 | 5390 ft | 21 kts | 107° |
| 2026-05-06 22:40 | 39.82938 | -104.66966 | 5399 ft | 20 kts | 90° |
| 2026-05-06 22:41 | 39.82933 | -104.66584 | 5417 ft | 19 kts | 90° |
| 2026-05-06 22:41 | 39.82932 | -104.66498 | 5420 ft | 6 kts | 91° |
| 2026-05-06 22:41 | 39.82932 | -104.66469 | 5421 ft | 0 kts | 91° |
| 2026-05-06 22:42 | 39.82931 | -104.66405 | 5434 ft | 13 kts | 90° |
| 2026-05-06 22:42 | 39.82932 | -104.66346 | 5439 ft | 4 kts | 89° |
| 2026-05-06 22:42 | 39.82932 | -104.66288 | 5441 ft | 0 kts | 89° |
| 2026-05-06 22:43 | 39.82933 | -104.66199 | 5442 ft | 16 kts | 89° |
| 2026-05-06 22:43 | 39.82941 | -104.66091 | 5441 ft | 11 kts | 65° |
| 2026-05-06 22:43 | 39.83009 | -104.66057 | 5442 ft | 13 kts | 2° |
| 2026-05-06 22:43 | 39.83301 | -104.66051 | 5437 ft | 84 kts | 0° |
| 2026-05-06 22:44 | 39.84183 | -104.66039 | 5416 ft | 168 kts | 0° |
| 2026-05-06 22:44 | 39.85577 | -104.66026 | 5556 ft | 218 kts | 0° |
| 2026-05-06 22:44 | 39.87136 | -104.66011 | 6036 ft | 227 kts | 359° |
| 2026-05-06 22:44 | 39.88732 | -104.66001 | 6730 ft | 231 kts | 359° |
| 2026-05-06 22:45 | 39.90344 | -104.65984 | 7371 ft | 233 kts | 360° |
| 2026-05-06 22:45 | 39.91970 | -104.65970 | 7965 ft | 234 kts | 355° |
| 2026-05-06 22:45 | 39.93590 | -104.66241 | 8561 ft | 236 kts | 349° |
| 2026-05-06 22:45 | 39.95226 | -104.66622 | 9114 ft | 242 kts | 348° |
| 2026-05-06 22:46 | 39.96928 | -104.67029 | 9732 ft | 257 kts | 348° |
| 2026-05-06 22:46 | 39.98737 | -104.67457 | 10402 ft | 277 kts | 348° |
| 2026-05-06 22:46 | 40.00674 | -104.67906 | 11007 ft | 289 kts | 348° |
| 2026-05-06 22:46 | 40.02733 | -104.68376 | 11670 ft | 312 kts | 348° |
| 2026-05-06 22:47 | 40.04958 | -104.68878 | 12327 ft | 336 kts | 348° |
| 2026-05-06 22:47 | 40.07346 | -104.69411 | 12991 ft | 360 kts | 348° |
| 2026-05-06 22:47 | 40.09876 | -104.69970 | 13653 ft | 373 kts | 347° |
| 2026-05-06 22:47 | 40.12465 | -104.70535 | 14259 ft | 379 kts | 348° |
| 2026-05-06 22:48 | 40.14192 | -104.70910 | 14632 ft | 380 kts | 348° |
| 2026-05-06 22:48 | 40.16807 | -104.71476 | 15197 ft | 381 kts | 348° |
| 2026-05-06 22:48 | 40.19331 | -104.72024 | 15763 ft | 382 kts | 348° |
| 2026-05-06 22:48 | 40.21956 | -104.72594 | 16398 ft | 383 kts | 348° |
| 2026-05-06 22:49 | 40.24586 | -104.73166 | 17053 ft | 384 kts | 348° |
| 2026-05-06 22:49 | 40.28098 | -104.73932 | 17946 ft | 388 kts | 349° |
| 2026-05-06 22:49 | 40.29904 | -104.74327 | 18410 ft | 390 kts | 349° |
| 2026-05-06 22:49 | 40.32587 | -104.74914 | 19011 ft | 393 kts | 349° |
| 2026-05-06 22:50 | 40.35299 | -104.75508 | 19619 ft | 396 kts | 350° |
| 2026-05-06 22:50 | 40.38023 | -104.76105 | 20243 ft | 398 kts | 350° |
| 2026-05-06 22:50 | 40.41653 | -104.76900 | 21084 ft | 400 kts | 351° |
| 2026-05-06 22:50 | 40.43479 | -104.77300 | 21511 ft | 401 kts | 351° |
| 2026-05-06 22:51 | 40.46239 | -104.77906 | 22169 ft | 402 kts | 352° |
| 2026-05-06 22:51 | 40.49004 | -104.78514 | 22841 ft | 402 kts | 352° |
| 2026-05-06 22:51 | 40.51767 | -104.79121 | 23526 ft | 403 kts | 352° |
| 2026-05-06 22:51 | 40.54539 | -104.79732 | 24142 ft | 403 kts | 353° |
| 2026-05-06 22:52 | 40.57315 | -104.80343 | 24730 ft | 404 kts | 353° |
| 2026-05-06 22:52 | 40.60092 | -104.80956 | 25323 ft | 405 kts | 353° |
| 2026-05-06 22:52 | 40.62878 | -104.81571 | 25926 ft | 405 kts | 353° |
| 2026-05-06 22:52 | 40.65664 | -104.82186 | 26538 ft | 405 kts | 353° |
| 2026-05-06 22:53 | 40.68411 | -104.82794 | 27162 ft | 405 kts | 353° |
| 2026-05-06 22:53 | 40.71187 | -104.83408 | 27811 ft | 404 kts | 353° |
| 2026-05-06 22:53 | 40.73961 | -104.84023 | 28463 ft | 403 kts | 353° |
| 2026-05-06 22:53 | 40.76723 | -104.84639 | 29139 ft | 402 kts | 352° |
| 2026-05-06 22:54 | 40.79417 | -104.85637 | 29801 ft | 405 kts | 341° |
| 2026-05-06 22:54 | 40.81932 | -104.87349 | 30465 ft | 407 kts | 333° |
| 2026-05-06 22:54 | 40.84279 | -104.89432 | 31044 ft | 403 kts | 333° |
| 2026-05-06 22:54 | 40.86664 | -104.91343 | 31639 ft | 398 kts | 335° |
| 2026-05-06 22:55 | 40.89061 | -104.93119 | 32286 ft | 394 kts | 336° |
| 2026-05-06 22:55 | 40.91480 | -104.94833 | 32784 ft | 393 kts | 325° |
| 2026-05-06 22:55 | 40.93862 | -104.96562 | 33342 ft | 390 kts | 324° |
| 2026-05-06 22:55 | 40.96246 | -104.98325 | 33579 ft | 394 kts | 324° |
| 2026-05-06 22:56 | 40.98647 | -105.00119 | 33864 ft | 397 kts | 324° |
| 2026-05-06 22:56 | 41.01067 | -105.01934 | 34085 ft | 402 kts | 324° |
| 2026-05-06 22:56 | 41.03482 | -105.03753 | 34216 ft | 408 kts | 324° |
| 2026-05-06 22:56 | 41.05962 | -105.05621 | 34352 ft | 413 kts | 323° |
| 2026-05-06 22:57 | 41.08488 | -105.07524 | 34490 ft | 419 kts | 324° |
| 2026-05-06 22:57 | 41.11039 | -105.09447 | 34628 ft | 425 kts | 324° |
| 2026-05-06 22:57 | 41.13636 | -105.11406 | 34761 ft | 430 kts | 324° |
| 2026-05-06 22:57 | 41.16241 | -105.13370 | 35069 ft | 430 kts | 324° |
| 2026-05-06 22:58 | 41.18835 | -105.15322 | 35558 ft | 425 kts | 324° |
| 2026-05-06 22:58 | 41.21397 | -105.17253 | 36013 ft | 421 kts | 324° |
| 2026-05-06 22:58 | 41.23929 | -105.19165 | 36479 ft | 416 kts | 323° |
| 2026-05-06 22:58 | 41.26428 | -105.21055 | 36970 ft | 411 kts | 323° |
| 2026-05-06 22:59 | 41.28896 | -105.22925 | 37449 ft | 405 kts | 323° |
| 2026-05-06 22:59 | 41.31328 | -105.24771 | 37819 ft | 402 kts | 323° |
| 2026-05-06 22:59 | 41.33762 | -105.26624 | 37923 ft | 405 kts | 323° |
| 2026-05-06 23:00 | 41.38657 | -105.30357 | 37996 ft | 411 kts | 323° |
| 2026-05-06 23:00 | 41.43658 | -105.34167 | 38005 ft | 418 kts | 323° |
| 2026-05-06 23:01 | 41.48759 | -105.38029 | 38021 ft | 426 kts | 325° |